createdAt,value
2018-10-01T00:00:03.740Z,8.81
2018-10-01T00:02:32.422Z,8.90
2018-10-01T00:05:01.099Z,8.89
2018-10-01T00:07:29.786Z,8.86
2018-10-01T00:09:58.470Z,8.90
2018-10-01T00:12:27.152Z,8.93
2018-10-01T00:14:55.886Z,8.86
2018-10-01T00:17:24.535Z,8.78
2018-10-01T00:19:58.181Z,8.78
2018-10-01T00:22:31.888Z,8.78
2018-10-01T00:25:00.552Z,8.84
2018-10-01T00:27:29.199Z,8.79
2018-10-01T00:29:57.831Z,8.67
2018-10-01T00:32:26.480Z,8.54
2018-10-01T00:34:55.145Z,8.54
2018-10-01T00:37:23.793Z,8.54
2018-10-01T00:39:52.440Z,8.53
2018-10-01T00:42:21.078Z,8.53
2018-10-01T00:44:49.835Z,8.50
2018-10-01T00:47:18.499Z,8.45
2018-10-01T00:49:47.204Z,8.54
2018-10-01T00:52:15.837Z,8.59
2018-10-01T00:54:44.467Z,8.60
2018-10-01T00:57:13.061Z,8.42
2018-10-01T00:59:41.713Z,8.34
2018-10-01T01:02:10.338Z,8.32
2018-10-01T01:04:38.985Z,8.27
2018-10-01T01:07:07.721Z,8.17
2018-10-01T01:09:36.380Z,8.22
2018-10-01T01:12:05.356Z,8.25
2018-10-01T01:14:34.010Z,8.19
2018-10-01T01:17:02.640Z,8.08
2018-10-01T01:19:31.307Z,8.02
2018-10-01T01:21:59.962Z,7.95
2018-10-01T01:24:28.618Z,7.98
2018-10-01T01:26:57.271Z,8.04
2018-10-01T01:29:25.980Z,7.96
2018-10-01T01:31:54.643Z,7.91
2018-10-01T01:34:23.263Z,7.88
2018-10-01T01:36:51.938Z,7.83
2018-10-01T01:39:20.562Z,7.79
2018-10-01T01:41:49.185Z,7.74
2018-10-01T01:44:17.806Z,7.68
2018-10-01T01:46:46.450Z,7.73
2018-10-01T01:49:15.132Z,7.65
2018-10-01T01:51:43.843Z,7.61
2018-10-01T01:54:12.525Z,7.64
2018-10-01T01:56:41.193Z,7.57
2018-10-01T01:59:09.889Z,7.48
2018-10-01T02:01:38.567Z,7.39
2018-10-01T02:04:07.309Z,7.30
2018-10-01T02:06:35.943Z,7.20
2018-10-01T02:09:06.082Z,7.12
2018-10-01T02:11:34.773Z,7.04
2018-10-01T02:14:03.450Z,7.02
2018-10-01T02:16:32.142Z,6.98
2018-10-01T02:19:00.760Z,6.94
2018-10-01T02:21:30.617Z,6.90
2018-10-01T02:23:59.332Z,6.84
2018-10-01T02:26:28.030Z,6.80
2018-10-01T02:28:56.722Z,6.74
2018-10-01T02:31:25.414Z,6.71
2018-10-01T02:33:54.190Z,6.71
2018-10-01T02:36:22.794Z,6.67
2018-10-01T02:38:51.434Z,6.62
2018-10-01T02:41:20.091Z,6.59
2018-10-01T02:43:48.726Z,6.55
2018-10-01T02:46:17.400Z,6.55
2018-10-01T02:48:46.029Z,6.52
2018-10-01T02:51:14.668Z,6.52
2018-10-01T02:53:48.495Z,6.48
2018-10-01T02:56:17.163Z,6.45
2018-10-01T02:58:45.781Z,6.41
2018-10-01T03:01:14.517Z,6.39
2018-10-01T03:03:43.185Z,6.38
2018-10-01T03:06:11.879Z,6.43
2018-10-01T03:08:40.551Z,6.38
2018-10-01T03:11:09.204Z,6.34
2018-10-01T03:13:37.881Z,6.31
2018-10-01T03:16:07.192Z,6.27
2018-10-01T03:18:35.851Z,6.30
2018-10-01T03:21:04.582Z,6.36
2018-10-01T03:23:33.264Z,6.34
2018-10-01T03:26:02.003Z,6.34
2018-10-01T03:28:30.685Z,6.39
2018-10-01T03:33:33.426Z,6.56
2018-10-01T03:36:02.085Z,6.61
2018-10-01T03:38:30.794Z,6.67
2018-10-01T03:40:59.470Z,6.65
2018-10-01T03:43:28.146Z,6.60
2018-10-01T03:45:56.782Z,6.60
2018-10-01T03:48:25.514Z,6.65
2018-10-01T03:50:54.170Z,6.59
2018-10-01T03:53:22.848Z,6.56
2018-10-01T03:55:51.520Z,6.49
2018-10-01T03:58:20.158Z,6.52
2018-10-01T04:00:48.850Z,6.50
2018-10-01T04:03:23.762Z,6.51
2018-10-01T04:05:52.405Z,6.55
2018-10-01T04:08:21.197Z,6.59
2018-10-01T04:10:49.857Z,6.53
2018-10-01T04:13:18.564Z,6.54
2018-10-01T04:15:47.261Z,6.54
2018-10-01T04:18:15.898Z,6.42
2018-10-01T04:20:49.869Z,6.51
2018-10-01T04:23:18.547Z,6.46
2018-10-01T04:25:47.218Z,6.59
2018-10-01T04:28:15.871Z,6.53
2018-10-01T04:30:44.486Z,6.46
2018-10-01T04:33:13.161Z,6.41
2018-10-01T04:35:41.811Z,6.39
2018-10-01T04:38:10.506Z,6.31
2018-10-01T04:40:39.180Z,6.16
2018-10-01T04:43:07.886Z,6.07
2018-10-01T04:45:36.554Z,5.95
2018-10-01T04:48:05.313Z,5.98
2018-10-01T04:50:33.942Z,5.90
2018-10-01T04:53:02.614Z,5.89
2018-10-01T04:55:31.267Z,5.82
2018-10-01T04:57:59.956Z,5.73
2018-10-01T05:00:28.608Z,5.81
2018-10-01T05:02:57.250Z,5.72
2018-10-01T05:05:25.976Z,5.66
2018-10-01T05:07:54.635Z,5.66
2018-10-01T05:10:23.318Z,5.67
2018-10-01T05:12:51.947Z,5.66
2018-10-01T05:15:20.633Z,5.66
2018-10-01T05:17:49.273Z,5.67
2018-10-01T05:20:17.934Z,5.79
2018-10-01T05:22:46.583Z,5.83
2018-10-01T05:25:15.228Z,5.84
2018-10-01T05:27:43.987Z,5.97
2018-10-01T05:30:12.674Z,6.14
2018-10-01T05:32:41.273Z,6.15
2018-10-01T05:35:09.986Z,6.14
2018-10-01T05:37:38.703Z,6.23
2018-10-01T05:40:07.406Z,6.24
2018-10-01T05:42:36.061Z,6.36
2018-10-01T05:45:04.926Z,6.43
2018-10-01T05:47:33.597Z,6.49
2018-10-01T05:50:02.311Z,6.59
2018-10-01T05:52:30.969Z,6.66
2018-10-01T05:54:59.629Z,6.75
2018-10-01T05:57:28.275Z,6.79
2018-10-01T05:59:56.947Z,6.83
2018-10-01T06:02:25.752Z,7.02
2018-10-01T06:04:54.487Z,7.16
2018-10-01T06:07:23.131Z,7.15
2018-10-01T06:09:51.822Z,7.27
2018-10-01T06:12:20.495Z,7.38
2018-10-01T06:14:49.186Z,7.53
2018-10-01T06:17:17.849Z,7.60
2018-10-01T06:19:46.530Z,7.73
2018-10-01T06:22:15.215Z,7.75
2018-10-01T06:24:43.875Z,7.68
2018-10-01T06:27:12.661Z,7.75
2018-10-01T06:29:41.338Z,7.87
2018-10-01T06:32:10.071Z,7.98
2018-10-01T06:34:38.769Z,8.04
2018-10-01T06:37:07.441Z,8.11
2018-10-01T06:39:36.150Z,8.19
2018-10-01T06:42:04.857Z,8.31
2018-10-01T06:44:33.570Z,8.39
2018-10-01T06:47:02.209Z,8.56
2018-10-01T06:49:30.894Z,8.60
2018-10-01T06:51:59.582Z,8.72
2018-10-01T06:54:28.285Z,8.90
2018-10-01T06:56:57.994Z,9.01
2018-10-01T06:59:26.678Z,9.29
2018-10-01T07:01:55.362Z,9.43
2018-10-01T07:04:24.157Z,9.48
2018-10-01T07:06:52.841Z,9.52
2018-10-01T07:09:21.514Z,9.66
2018-10-01T07:11:50.236Z,9.82
2018-10-01T07:14:18.957Z,10.06
2018-10-01T07:16:47.771Z,10.33
2018-10-01T07:19:16.548Z,10.50
2018-10-01T07:21:45.306Z,10.35
2018-10-01T07:24:14.081Z,10.33
2018-10-01T07:26:42.707Z,10.35
2018-10-01T07:29:11.414Z,10.47
2018-10-01T07:31:40.097Z,10.42
2018-10-01T07:34:08.789Z,10.48
2018-10-01T07:36:37.467Z,10.48
2018-10-01T07:39:08.092Z,10.49
2018-10-01T07:41:36.704Z,10.52
2018-10-01T07:44:05.400Z,10.68
2018-10-01T07:46:34.053Z,10.73
2018-10-01T07:49:02.758Z,10.73
2018-10-01T07:51:31.530Z,10.71
2018-10-01T07:54:00.224Z,10.71
2018-10-01T07:56:28.849Z,10.76
2018-10-01T07:58:57.511Z,10.74
2018-10-01T08:01:26.170Z,10.89
2018-10-01T08:03:54.808Z,10.99
2018-10-01T08:06:23.564Z,11.05
2018-10-01T08:08:52.230Z,11.22
2018-10-01T08:11:21.027Z,11.36
2018-10-01T08:13:49.786Z,11.54
2018-10-01T08:16:18.496Z,11.63
2018-10-01T08:18:47.178Z,11.66
2018-10-01T08:21:15.856Z,11.63
2018-10-01T08:23:44.569Z,11.73
2018-10-01T08:26:13.360Z,11.74
2018-10-01T08:28:41.958Z,11.82
2018-10-01T08:31:10.655Z,12.07
2018-10-01T08:33:39.385Z,12.37
2018-10-01T08:36:08.262Z,12.55
2018-10-01T08:38:37.119Z,12.82
2018-10-01T08:41:05.900Z,13.04
2018-10-01T08:43:34.501Z,13.36
2018-10-01T08:46:03.234Z,13.45
2018-10-01T08:48:33.750Z,13.78
2018-10-01T08:51:11.232Z,14.05
2018-10-01T08:53:45.266Z,14.16
2018-10-01T08:56:13.977Z,14.24
2018-10-01T08:58:42.590Z,14.26
2018-10-01T09:01:11.393Z,14.61
2018-10-01T09:03:40.045Z,14.85
2018-10-01T09:06:08.842Z,15.07
2018-10-01T09:08:37.622Z,15.22
2018-10-01T09:11:06.426Z,15.29
2018-10-01T09:13:35.098Z,15.44
2018-10-01T09:16:03.821Z,15.54
2018-10-01T09:18:32.532Z,15.65
2018-10-01T09:21:01.200Z,15.57
2018-10-01T09:23:29.908Z,15.51
2018-10-01T09:25:58.608Z,15.63
2018-10-01T09:28:27.388Z,15.69
2018-10-01T09:30:56.137Z,15.79
2018-10-01T09:33:24.755Z,15.44
2018-10-01T09:35:53.534Z,15.33
2018-10-01T09:38:22.239Z,15.37
2018-10-01T09:40:50.909Z,15.53
2018-10-01T09:43:19.597Z,15.57
2018-10-01T09:45:48.287Z,15.53
2018-10-01T09:48:16.966Z,15.31
2018-10-01T09:50:45.663Z,15.38
2018-10-01T09:53:14.322Z,15.62
2018-10-01T09:55:42.998Z,15.62
2018-10-01T09:58:11.722Z,15.75
2018-10-01T10:00:43.853Z,15.79
2018-10-01T10:03:12.957Z,15.76
2018-10-01T10:05:41.716Z,15.95
2018-10-01T10:08:10.468Z,16.01
2018-10-01T10:10:39.152Z,16.00
2018-10-01T10:13:07.962Z,15.80
2018-10-01T10:15:36.829Z,15.72
2018-10-01T10:18:05.839Z,15.50
2018-10-01T10:20:34.658Z,15.54
2018-10-01T10:23:03.435Z,15.75
2018-10-01T10:25:32.314Z,15.88
2018-10-01T10:28:01.132Z,16.00
2018-10-01T10:30:30.103Z,15.97
2018-10-01T10:32:58.917Z,15.98
2018-10-01T10:35:27.805Z,15.90
2018-10-01T10:37:56.637Z,15.79
2018-10-01T10:40:25.357Z,15.80
2018-10-01T10:42:54.248Z,15.86
2018-10-01T10:45:22.973Z,15.91
2018-10-01T10:47:51.674Z,15.83
2018-10-01T10:50:20.457Z,15.82
2018-10-01T10:52:49.146Z,15.79
2018-10-01T10:55:17.864Z,15.81
2018-10-01T10:57:46.808Z,15.91
2018-10-01T11:00:15.524Z,15.95
2018-10-01T11:02:44.230Z,15.96
2018-10-01T11:05:12.963Z,15.99
2018-10-01T11:07:41.689Z,16.08
2018-10-01T11:10:10.478Z,15.89
2018-10-01T11:12:39.276Z,15.94
2018-10-01T11:15:08.840Z,15.93
2018-10-01T11:17:37.422Z,16.15
2018-10-01T11:20:06.433Z,16.29
2018-10-01T11:22:35.201Z,16.42
2018-10-01T11:25:03.979Z,16.45
2018-10-01T11:27:32.706Z,16.39
2018-10-01T11:30:01.407Z,16.27
2018-10-01T11:32:30.155Z,16.03
2018-10-01T11:34:59.111Z,16.22
2018-10-01T11:37:27.599Z,16.42
2018-10-01T11:39:56.399Z,16.65
2018-10-01T11:42:25.153Z,16.68
2018-10-01T11:44:54.384Z,16.76
2018-10-01T11:47:23.245Z,16.80
2018-10-01T11:49:52.009Z,16.78
2018-10-01T11:52:20.726Z,16.91
2018-10-01T11:54:49.460Z,17.06
2018-10-01T11:57:18.282Z,16.72
2018-10-01T11:59:47.024Z,16.88
2018-10-01T12:02:15.856Z,17.15
2018-10-01T12:04:44.636Z,17.24
2018-10-01T12:07:13.379Z,17.40
2018-10-01T12:09:42.278Z,17.47
2018-10-01T12:12:11.041Z,17.10
2018-10-01T12:14:39.802Z,17.18
2018-10-01T12:17:08.566Z,17.38
2018-10-01T12:19:37.336Z,17.61
2018-10-01T12:22:06.641Z,17.74
2018-10-01T12:24:35.326Z,17.53
2018-10-01T12:27:04.071Z,17.78
2018-10-01T12:29:32.753Z,17.84
2018-10-01T12:32:01.524Z,18.00
2018-10-01T12:34:30.342Z,18.06
2018-10-01T12:36:59.135Z,18.08
2018-10-01T12:39:27.989Z,18.25
2018-10-01T12:41:56.713Z,18.39
2018-10-01T12:44:25.461Z,18.40
2018-10-01T12:46:54.327Z,18.10
2018-10-01T12:49:23.167Z,18.39
2018-10-01T12:51:52.059Z,18.26
2018-10-01T12:54:20.810Z,18.15
2018-10-01T12:56:49.763Z,18.20
2018-10-01T12:59:18.577Z,18.11
2018-10-01T13:01:47.435Z,18.01
2018-10-01T13:04:17.203Z,17.57
2018-10-01T13:06:46.040Z,17.29
2018-10-01T13:09:14.752Z,17.39
2018-10-01T13:11:43.515Z,17.61
2018-10-01T13:14:12.332Z,17.89
2018-10-01T13:16:41.047Z,18.23
2018-10-01T13:19:09.750Z,17.73
2018-10-01T13:21:38.564Z,17.52
2018-10-01T13:24:07.446Z,17.05
2018-10-01T13:26:36.135Z,16.66
2018-10-01T13:29:04.862Z,15.99
2018-10-01T13:31:33.598Z,15.87
2018-10-01T13:34:02.325Z,15.74
2018-10-01T13:36:31.136Z,15.50
2018-10-01T13:39:04.961Z,15.36
2018-10-01T13:41:33.730Z,15.20
2018-10-01T13:44:02.474Z,14.93
2018-10-01T13:46:31.496Z,14.82
2018-10-01T13:49:00.274Z,14.71
2018-10-01T13:51:29.043Z,14.49
2018-10-01T13:53:57.777Z,14.53
2018-10-01T13:56:26.557Z,14.31
2018-10-01T13:58:55.402Z,14.06
2018-10-01T14:01:24.282Z,14.06
2018-10-01T14:03:53.043Z,14.01
2018-10-01T14:06:21.840Z,13.92
2018-10-01T14:08:50.597Z,13.81
2018-10-01T14:11:19.379Z,13.68
2018-10-01T14:13:48.414Z,13.62
2018-10-01T14:16:17.062Z,13.67
2018-10-01T14:18:45.949Z,13.53
2018-10-01T14:21:14.887Z,13.44
2018-10-01T14:23:43.745Z,13.30
2018-10-01T14:26:12.587Z,13.20
2018-10-01T14:28:41.300Z,13.08
2018-10-01T14:31:10.203Z,13.10
2018-10-01T14:33:38.887Z,12.98
2018-10-01T14:36:07.747Z,12.99
2018-10-01T14:38:36.480Z,13.00
2018-10-01T14:41:05.218Z,12.94
2018-10-01T14:43:33.946Z,12.85
2018-10-01T14:46:02.666Z,12.91
2018-10-01T14:48:31.456Z,12.74
2018-10-01T14:51:00.216Z,12.71
2018-10-01T14:53:28.935Z,12.61
2018-10-01T14:55:57.671Z,12.63
2018-10-01T14:58:26.370Z,12.55
2018-10-01T15:00:55.190Z,12.61
2018-10-01T15:03:23.960Z,12.60
2018-10-01T15:05:52.783Z,12.53
2018-10-01T15:08:21.590Z,12.52
2018-10-01T15:10:50.460Z,12.44
2018-10-01T15:13:19.235Z,12.44
2018-10-01T15:15:48.064Z,12.40
2018-10-01T15:18:17.217Z,12.30
2018-10-01T15:20:45.982Z,12.30
2018-10-01T15:23:14.804Z,12.29
2018-10-01T15:25:43.595Z,12.22
2018-10-01T15:28:12.445Z,12.22
2018-10-01T15:30:41.326Z,12.25
2018-10-01T15:33:09.971Z,12.35
2018-10-01T15:35:38.812Z,12.31
2018-10-01T15:38:08.740Z,12.35
2018-10-01T15:40:37.622Z,12.21
2018-10-01T15:43:07.408Z,12.22
2018-10-01T15:45:36.238Z,12.15
2018-10-01T15:48:04.995Z,12.08
2018-10-01T15:50:33.826Z,12.14
2018-10-01T15:53:02.594Z,12.10
2018-10-01T15:55:31.402Z,12.09
2018-10-01T15:58:00.206Z,12.15
2018-10-01T16:00:28.983Z,12.19
2018-10-01T16:02:57.945Z,12.17
2018-10-01T16:05:26.700Z,12.11
2018-10-01T16:07:55.462Z,12.11
2018-10-01T16:10:24.347Z,12.10
2018-10-01T16:12:53.115Z,12.07
2018-10-01T16:15:22.039Z,12.08
2018-10-01T16:17:50.822Z,12.12
2018-10-01T16:20:19.512Z,12.05
2018-10-01T16:22:48.357Z,12.02
2018-10-01T16:25:17.185Z,12.02
2018-10-01T16:27:45.929Z,12.01
2018-10-01T16:30:14.674Z,12.00
2018-10-01T16:32:43.474Z,12.08
2018-10-01T16:35:12.350Z,11.99
2018-10-01T16:37:41.616Z,12.10
2018-10-01T16:40:10.410Z,12.05
2018-10-01T16:42:39.190Z,11.99
2018-10-01T16:45:08.178Z,11.99
2018-10-01T16:47:37.039Z,12.08
2018-10-01T16:50:05.990Z,11.95
2018-10-01T16:52:34.863Z,11.91
2018-10-01T16:55:03.752Z,11.95
2018-10-01T16:57:33.843Z,11.96
2018-10-01T17:00:02.901Z,12.00
2018-10-01T17:02:31.790Z,12.09
2018-10-01T17:05:00.625Z,12.05
2018-10-01T17:07:30.124Z,12.12
2018-10-01T17:10:00.898Z,11.96
2018-10-01T17:12:30.189Z,11.94
2018-10-01T17:14:59.453Z,12.07
2018-10-01T17:17:28.468Z,12.00
2018-10-01T17:19:57.579Z,11.95
2018-10-01T17:22:26.362Z,11.99
2018-10-01T17:24:55.144Z,11.96
2018-10-01T17:27:23.847Z,11.97
2018-10-01T17:29:52.647Z,11.93
2018-10-01T17:32:21.459Z,11.92
2018-10-01T17:34:50.216Z,11.89
2018-10-01T17:37:18.988Z,11.87
2018-10-01T17:39:47.731Z,11.87
2018-10-01T17:42:16.543Z,11.84
2018-10-01T17:44:45.360Z,11.91
2018-10-01T17:47:14.100Z,11.88
2018-10-01T17:49:42.949Z,11.77
2018-10-01T17:52:11.818Z,11.89
2018-10-01T17:54:47.222Z,11.87
2018-10-01T17:57:16.855Z,11.84
2018-10-01T17:59:45.927Z,11.78
2018-10-01T18:02:14.660Z,11.81
2018-10-01T18:04:43.459Z,11.81
2018-10-01T18:07:12.246Z,11.82
2018-10-01T18:09:41.176Z,11.85
2018-10-01T18:12:10.118Z,11.83
2018-10-01T18:14:38.894Z,11.76
2018-10-01T18:17:07.650Z,11.76
2018-10-01T18:19:36.494Z,11.68
2018-10-01T18:22:05.313Z,11.75
2018-10-01T18:24:34.126Z,11.74
2018-10-01T18:27:02.847Z,11.73
2018-10-01T18:29:31.608Z,11.67
2018-10-01T18:32:00.516Z,11.69
2018-10-01T18:34:29.327Z,11.74
2018-10-01T18:36:58.016Z,11.68
2018-10-01T18:39:29.365Z,11.77
2018-10-01T18:41:58.572Z,11.73
2018-10-01T18:44:27.300Z,11.79
2018-10-01T18:46:56.112Z,11.79
2018-10-01T18:49:24.947Z,11.75
2018-10-01T18:51:53.757Z,11.80
2018-10-01T18:54:22.524Z,11.78
2018-10-01T18:56:51.414Z,11.78
2018-10-01T18:59:20.198Z,11.83
2018-10-01T19:01:48.979Z,11.85
2018-10-01T19:04:17.856Z,11.81
2018-10-01T19:06:46.662Z,11.83
2018-10-01T19:09:15.564Z,11.84
2018-10-01T19:11:44.398Z,11.87
2018-10-01T19:14:13.379Z,11.79
2018-10-01T19:16:42.240Z,11.79
2018-10-01T19:19:11.056Z,11.78
2018-10-01T19:21:40.036Z,11.82
2018-10-01T19:24:08.832Z,11.72
2018-10-01T19:26:37.613Z,11.82
2018-10-01T19:29:06.503Z,11.91
2018-10-01T19:31:35.380Z,11.79
2018-10-01T19:34:04.302Z,11.84
2018-10-01T19:36:33.264Z,11.75
2018-10-01T19:39:02.099Z,11.82
2018-10-01T19:41:31.165Z,11.89
2018-10-01T19:44:00.064Z,11.82
2018-10-01T19:46:28.859Z,11.81
2018-10-01T19:48:57.781Z,11.77
2018-10-01T19:51:26.603Z,11.75
2018-10-01T19:53:55.571Z,11.82
2018-10-01T19:56:24.470Z,11.72
2018-10-01T19:58:53.326Z,11.79
2018-10-01T20:01:22.239Z,11.80
2018-10-01T20:03:51.090Z,11.77
2018-10-01T20:06:19.985Z,11.78
2018-10-01T20:08:48.834Z,11.80
2018-10-01T20:11:17.816Z,11.69
2018-10-01T20:13:46.622Z,11.74
2018-10-01T20:16:15.530Z,11.76
2018-10-01T20:18:44.399Z,11.77
2018-10-01T20:21:13.356Z,11.71
2018-10-01T20:23:42.245Z,11.75
2018-10-01T20:26:11.023Z,11.75
2018-10-01T20:28:39.998Z,11.76
2018-10-01T20:31:08.679Z,11.71
2018-10-01T20:33:37.444Z,11.73
2018-10-01T20:36:06.422Z,11.67
2018-10-01T20:38:35.134Z,11.66
2018-10-01T20:41:04.164Z,11.63
2018-10-01T20:43:32.896Z,11.68
2018-10-01T20:46:01.683Z,11.64
2018-10-01T20:48:30.408Z,11.62
2018-10-01T20:50:59.150Z,11.61
2018-10-01T20:53:28.034Z,11.66
2018-10-01T20:55:56.795Z,11.63
2018-10-01T20:58:25.570Z,11.63
2018-10-01T21:00:54.295Z,11.62
2018-10-01T21:03:23.310Z,11.51
2018-10-01T21:05:52.033Z,11.50
2018-10-01T21:08:20.889Z,11.48
2018-10-01T21:10:49.688Z,11.47
2018-10-01T21:13:18.543Z,11.49
2018-10-01T21:15:47.266Z,11.52
2018-10-01T21:18:15.993Z,11.45
2018-10-01T21:20:44.817Z,11.30
2018-10-01T21:23:13.525Z,11.25
2018-10-01T21:25:42.285Z,11.22
2018-10-01T21:28:12.491Z,11.24
2018-10-01T21:30:41.186Z,11.20
2018-10-01T21:33:09.990Z,11.14
2018-10-01T21:35:38.724Z,11.14
2018-10-01T21:38:07.475Z,11.04
2018-10-01T21:40:36.202Z,11.01
2018-10-01T21:43:04.957Z,10.99
2018-10-01T21:45:33.754Z,10.94
2018-10-01T21:48:02.465Z,10.92
2018-10-01T21:50:31.154Z,10.84
2018-10-01T21:52:59.965Z,10.84
2018-10-01T21:55:28.697Z,10.82
2018-10-01T21:57:57.447Z,10.90
2018-10-01T22:00:26.282Z,10.87
2018-10-01T22:02:55.026Z,10.82
2018-10-01T22:05:23.774Z,10.96
2018-10-01T22:07:52.559Z,10.89
2018-10-01T22:10:21.292Z,10.93
2018-10-01T22:12:50.054Z,10.99
2018-10-01T22:15:18.782Z,11.05
2018-10-01T22:17:47.479Z,11.01
2018-10-01T22:20:16.186Z,11.03
2018-10-01T22:22:44.836Z,10.91
2018-10-01T22:25:13.491Z,10.95
2018-10-01T22:27:42.194Z,10.93
2018-10-01T22:30:10.872Z,10.84
2018-10-01T22:32:39.515Z,10.82
2018-10-01T22:35:08.214Z,10.82
2018-10-01T22:37:36.886Z,10.76
2018-10-01T22:40:05.708Z,10.73
2018-10-01T22:42:34.451Z,10.77
2018-10-01T22:45:03.146Z,10.83
2018-10-01T22:47:31.873Z,10.77
2018-10-01T22:50:06.008Z,10.89
2018-10-01T22:52:34.687Z,10.87
2018-10-01T22:55:03.360Z,10.99
2018-10-01T22:57:32.094Z,10.93
2018-10-01T23:00:00.762Z,10.98
2018-10-01T23:02:29.466Z,11.01
2018-10-01T23:04:58.155Z,10.91
2018-10-01T23:07:26.837Z,10.93
2018-10-01T23:09:55.477Z,10.90
2018-10-01T23:12:24.134Z,10.98
2018-10-01T23:14:52.785Z,10.94
2018-10-01T23:17:21.458Z,10.99
2018-10-01T23:19:50.113Z,11.00
2018-10-01T23:22:18.809Z,10.90
2018-10-01T23:24:47.525Z,10.91
2018-10-01T23:27:16.165Z,10.98
2018-10-01T23:29:44.840Z,10.89
2018-10-01T23:32:13.604Z,10.96
2018-10-01T23:34:42.205Z,10.89
2018-10-01T23:37:10.852Z,10.99
2018-10-01T23:39:39.538Z,10.90
2018-10-01T23:42:08.242Z,10.98
2018-10-01T23:44:36.853Z,10.99
2018-10-01T23:47:05.598Z,10.88
2018-10-01T23:49:34.327Z,10.91
2018-10-01T23:52:02.979Z,10.91
2018-10-01T23:54:31.683Z,10.85
2018-10-01T23:57:00.353Z,10.83
2018-10-01T23:59:29.042Z,10.87
